createdAt,value
2023-05-25T00:00:19.147Z,18.60
2023-05-25T00:02:49.358Z,18.60
2023-05-25T00:05:18.283Z,18.50
2023-05-25T00:07:45.337Z,18.40
2023-05-25T00:10:12.332Z,18.30
2023-05-25T00:12:39.261Z,18.20
2023-05-25T00:15:07.525Z,18.20
2023-05-25T00:17:37.112Z,18.10
2023-05-25T00:20:07.331Z,18.00
2023-05-25T00:22:37.933Z,17.90
2023-05-25T00:25:06.538Z,17.80
2023-05-25T00:27:33.472Z,17.80
2023-05-25T00:30:00.469Z,17.70
2023-05-25T00:32:27.696Z,17.70
2023-05-25T00:34:55.362Z,17.60
2023-05-25T00:37:22.344Z,17.60
2023-05-25T00:39:50.080Z,17.50
2023-05-25T00:42:17.188Z,17.40
2023-05-25T00:44:48.277Z,17.40
2023-05-25T00:47:17.510Z,17.40
2023-05-25T00:49:44.425Z,17.30
2023-05-25T00:52:13.633Z,17.20
2023-05-25T00:54:40.615Z,17.20
2023-05-25T00:57:08.366Z,17.10
2023-05-25T00:59:41.480Z,17.00
2023-05-25T01:02:11.726Z,17.00
2023-05-25T01:04:45.320Z,16.90
2023-05-25T01:07:19.361Z,16.80
2023-05-25T01:09:47.487Z,16.80
2023-05-25T01:12:16.526Z,16.80
2023-05-25T01:14:43.783Z,16.70
2023-05-25T01:17:11.325Z,16.70
2023-05-25T01:19:41.062Z,16.60
2023-05-25T01:22:32.500Z,16.50
2023-05-25T01:25:13.770Z,16.50
2023-05-25T01:27:47.198Z,16.50
2023-05-25T01:30:16.415Z,16.40
2023-05-25T01:32:44.080Z,16.30
2023-05-25T01:35:11.812Z,16.30
2023-05-25T01:37:45.434Z,16.30
2023-05-25T01:40:14.432Z,16.20
2023-05-25T01:42:41.744Z,16.20
2023-05-25T01:45:10.321Z,16.10
2023-05-25T01:48:16.339Z,16.10
2023-05-25T01:50:54.801Z,16.00
2023-05-25T01:53:39.086Z,15.90
2023-05-25T01:56:09.858Z,16.00
2023-05-25T01:58:42.326Z,15.90
2023-05-25T02:01:12.536Z,15.80
2023-05-25T02:03:41.483Z,15.80
2023-05-25T02:06:09.503Z,15.80
2023-05-25T02:08:36.430Z,15.70
2023-05-25T02:11:03.607Z,15.70
2023-05-25T02:13:30.704Z,15.70
2023-05-25T02:15:57.749Z,15.60
2023-05-25T02:18:24.723Z,15.60
2023-05-25T02:20:54.512Z,15.60
2023-05-25T02:23:21.743Z,15.50
2023-05-25T02:25:48.783Z,15.50
2023-05-25T02:28:16.430Z,15.50
2023-05-25T02:30:43.575Z,15.50
2023-05-25T02:33:10.511Z,15.40
2023-05-25T02:35:38.254Z,15.40
2023-05-25T02:38:05.197Z,15.40
2023-05-25T02:40:32.439Z,15.40
2023-05-25T02:42:59.415Z,15.30
2023-05-25T02:45:26.428Z,15.30
2023-05-25T02:47:53.433Z,15.30
2023-05-25T02:50:22.668Z,15.30
2023-05-25T02:52:52.868Z,15.30
2023-05-25T02:55:19.800Z,15.20
2023-05-25T02:57:46.938Z,15.20
2023-05-25T03:00:27.107Z,15.20
2023-05-25T03:02:54.420Z,15.10
2023-05-25T03:05:22.217Z,15.10
2023-05-25T03:07:49.279Z,15.10
2023-05-25T03:10:16.212Z,15.10
2023-05-25T03:12:44.111Z,15.10
2023-05-25T03:15:13.927Z,15.10
2023-05-25T03:17:41.089Z,15.00
2023-05-25T03:20:10.458Z,15.00
2023-05-25T03:22:40.617Z,15.00
2023-05-25T03:25:08.020Z,15.00
2023-05-25T03:27:35.020Z,15.00
2023-05-25T03:30:02.204Z,15.00
2023-05-25T03:32:29.648Z,15.00
2023-05-25T03:34:57.253Z,15.00
2023-05-25T03:37:24.268Z,15.00
2023-05-25T03:39:51.322Z,15.00
2023-05-25T03:42:18.350Z,15.00
2023-05-25T03:44:45.429Z,15.00
2023-05-25T03:47:13.172Z,15.00
2023-05-25T03:49:40.128Z,15.00
2023-05-25T03:52:07.297Z,15.00
2023-05-25T03:54:34.244Z,15.00
2023-05-25T03:57:03.406Z,15.10
2023-05-25T03:59:31.642Z,15.00
2023-05-25T04:01:58.570Z,15.10
2023-05-25T04:04:28.240Z,15.20
2023-05-25T04:06:55.535Z,15.30
2023-05-25T04:09:23.120Z,15.50
2023-05-25T04:11:50.092Z,15.60
2023-05-25T04:14:17.110Z,15.90
2023-05-25T04:16:45.791Z,16.10
2023-05-25T04:19:14.222Z,16.30
2023-05-25T04:21:41.257Z,16.50
2023-05-25T04:24:08.287Z,16.70
2023-05-25T04:27:22.943Z,16.80
2023-05-25T04:29:50.638Z,17.00
2023-05-25T04:32:37.266Z,17.20
2023-05-25T04:35:23.440Z,17.30
2023-05-25T04:37:51.611Z,17.40
2023-05-25T04:40:18.704Z,17.40
2023-05-25T04:42:45.657Z,17.40
2023-05-25T04:45:17.502Z,17.50
2023-05-25T04:47:45.294Z,17.50
2023-05-25T04:50:12.770Z,17.50
2023-05-25T04:52:39.817Z,17.50
2023-05-25T04:55:09.778Z,17.50
2023-05-25T04:57:39.901Z,17.50
2023-05-25T05:00:09.835Z,17.50
2023-05-25T05:02:38.417Z,17.50
2023-05-25T05:05:06.555Z,17.50
2023-05-25T05:07:33.897Z,17.50
2023-05-25T05:10:00.925Z,17.50
2023-05-25T05:12:28.649Z,17.50
2023-05-25T05:14:58.211Z,17.50
2023-05-25T05:17:26.427Z,17.50
2023-05-25T05:19:53.696Z,17.50
2023-05-25T05:22:20.718Z,17.60
2023-05-25T05:24:47.660Z,17.60
2023-05-25T05:27:21.382Z,17.60
2023-05-25T05:29:54.069Z,17.60
2023-05-25T05:32:21.167Z,17.60
2023-05-25T05:34:48.189Z,17.70
2023-05-25T05:37:30.941Z,17.70
2023-05-25T05:39:57.891Z,17.80
2023-05-25T05:42:25.146Z,17.80
2023-05-25T05:44:52.107Z,17.80
2023-05-25T05:47:19.046Z,17.90
2023-05-25T05:49:47.337Z,17.90
2023-05-25T05:52:14.540Z,17.90
2023-05-25T05:54:41.488Z,17.90
2023-05-25T05:57:11.996Z,18.00
2023-05-25T05:59:39.047Z,18.00
2023-05-25T06:02:07.450Z,18.10
2023-05-25T06:04:34.637Z,18.20
2023-05-25T06:07:01.603Z,18.30
2023-05-25T06:09:28.565Z,18.40
2023-05-25T06:11:59.479Z,18.40
2023-05-25T06:14:28.471Z,18.50
2023-05-25T06:16:58.309Z,18.50
2023-05-25T06:19:25.607Z,18.60
2023-05-25T06:21:52.591Z,18.60
2023-05-25T06:24:21.388Z,18.70
2023-05-25T06:26:48.342Z,18.70
2023-05-25T06:29:17.396Z,18.70
2023-05-25T06:31:44.716Z,18.80
2023-05-25T06:34:11.744Z,18.90
2023-05-25T06:36:39.379Z,19.00
2023-05-25T06:39:06.543Z,19.10
2023-05-25T06:41:33.475Z,19.20
2023-05-25T06:44:00.658Z,19.20
2023-05-25T06:46:32.866Z,19.30
2023-05-25T06:49:00.979Z,19.40
2023-05-25T06:51:28.152Z,19.40
2023-05-25T06:53:58.184Z,19.50
2023-05-25T06:56:25.145Z,19.60
2023-05-25T06:58:52.183Z,19.70
2023-05-25T07:01:19.216Z,19.80
2023-05-25T07:03:46.269Z,20.00
2023-05-25T07:06:13.236Z,20.10
2023-05-25T07:08:40.170Z,20.20
2023-05-25T07:11:10.519Z,20.40
2023-05-25T07:13:37.535Z,20.40
2023-05-25T07:16:04.535Z,20.50
2023-05-25T07:18:31.660Z,20.60
2023-05-25T07:20:59.358Z,20.70
2023-05-25T07:23:26.384Z,20.70
2023-05-25T07:25:53.313Z,20.70
2023-05-25T07:28:20.277Z,20.80
2023-05-25T07:30:47.216Z,20.80
2023-05-25T07:33:14.241Z,20.80
2023-05-25T07:35:41.141Z,20.90
2023-05-25T07:38:08.062Z,20.90
2023-05-25T07:40:34.981Z,21.00
2023-05-25T07:43:01.992Z,21.10
2023-05-25T07:45:28.951Z,21.10
2023-05-25T07:47:56.075Z,21.20
2023-05-25T07:50:23.959Z,21.20
2023-05-25T07:52:51.094Z,21.20
2023-05-25T07:55:19.283Z,21.20
2023-05-25T07:57:46.274Z,21.20
2023-05-25T08:00:13.713Z,21.30
2023-05-25T08:02:41.089Z,21.30
2023-05-25T08:05:08.953Z,21.30
2023-05-25T08:07:36.146Z,21.30
2023-05-25T08:10:03.667Z,21.40
2023-05-25T08:12:47.133Z,21.40
2023-05-25T08:15:16.843Z,21.50
2023-05-25T08:17:44.168Z,21.50
2023-05-25T08:20:12.092Z,21.60
2023-05-25T08:22:39.050Z,21.70
2023-05-25T08:25:06.937Z,21.70
2023-05-25T08:27:35.771Z,21.70
2023-05-25T08:30:06.931Z,21.70
2023-05-25T08:32:33.979Z,21.70
2023-05-25T08:35:02.047Z,21.70
2023-05-25T08:37:29.318Z,21.70
2023-05-25T08:39:56.259Z,21.80
2023-05-25T08:42:23.881Z,21.80
2023-05-25T08:44:50.848Z,21.90
2023-05-25T08:47:20.459Z,21.90
2023-05-25T08:49:49.437Z,21.90
2023-05-25T08:52:22.430Z,22.00
2023-05-25T08:54:54.335Z,22.10
2023-05-25T08:57:35.715Z,22.20
2023-05-25T09:00:10.958Z,22.30
2023-05-25T09:03:03.710Z,22.40
2023-05-25T09:05:31.139Z,22.50
2023-05-25T09:07:58.986Z,22.50
2023-05-25T09:10:29.057Z,22.60
2023-05-25T09:12:56.334Z,22.60
2023-05-25T09:15:23.305Z,22.70
2023-05-25T09:17:50.296Z,22.80
2023-05-25T09:20:19.737Z,22.80
2023-05-25T09:22:49.492Z,22.80
2023-05-25T09:25:21.874Z,22.90
2023-05-25T09:27:49.691Z,22.80
2023-05-25T09:30:16.731Z,22.80
2023-05-25T09:32:43.718Z,22.70
2023-05-25T09:35:13.661Z,22.70
2023-05-25T09:37:42.451Z,22.60
2023-05-25T09:40:15.340Z,22.60
2023-05-25T09:42:42.988Z,22.60
2023-05-25T09:45:10.264Z,22.60
2023-05-25T09:47:38.351Z,22.60
2023-05-25T09:50:06.327Z,22.60
2023-05-25T09:52:33.324Z,22.60
2023-05-25T09:55:02.074Z,22.60
2023-05-25T09:57:29.055Z,22.60
2023-05-25T09:59:56.745Z,22.60
2023-05-25T10:02:23.754Z,22.70
2023-05-25T10:04:50.760Z,22.70
2023-05-25T10:07:17.836Z,22.80
2023-05-25T10:09:46.652Z,22.90
2023-05-25T10:12:18.533Z,23.00
2023-05-25T10:14:46.635Z,23.10
2023-05-25T10:17:19.597Z,23.20
2023-05-25T10:20:01.018Z,23.20
2023-05-25T10:22:44.903Z,23.30
2023-05-25T10:25:29.479Z,23.30
2023-05-25T10:28:02.786Z,23.40
2023-05-25T10:30:30.328Z,23.40
2023-05-25T10:32:57.629Z,23.40
2023-05-25T10:35:25.318Z,23.40
2023-05-25T10:37:53.536Z,23.30
2023-05-25T10:40:23.962Z,23.20
2023-05-25T10:42:51.852Z,23.20
2023-05-25T10:45:19.857Z,23.10
2023-05-25T10:47:47.384Z,23.10
2023-05-25T10:50:22.871Z,23.10
2023-05-25T10:53:13.556Z,23.10
2023-05-25T10:55:49.783Z,23.10
2023-05-25T10:58:19.059Z,23.10
2023-05-25T11:01:11.179Z,23.20
2023-05-25T11:03:44.298Z,23.20
2023-05-25T11:06:15.922Z,23.30
2023-05-25T11:08:56.167Z,23.40
2023-05-25T11:11:42.944Z,23.50
2023-05-25T11:14:23.669Z,23.60
2023-05-25T11:17:16.559Z,23.70
2023-05-25T11:19:50.732Z,23.80
2023-05-25T11:22:23.814Z,23.80
2023-05-25T11:24:53.261Z,24.00
2023-05-25T11:27:28.134Z,24.00
2023-05-25T11:29:59.520Z,24.10
2023-05-25T11:32:28.382Z,24.20
2023-05-25T11:34:57.365Z,24.30
2023-05-25T11:37:28.770Z,24.40
2023-05-25T11:39:56.012Z,24.40
2023-05-25T11:42:24.781Z,24.30
2023-05-25T11:44:51.889Z,24.40
2023-05-25T11:47:24.927Z,24.30
2023-05-25T11:49:52.255Z,24.40
2023-05-25T11:52:22.269Z,24.40
2023-05-25T11:54:49.481Z,24.40
2023-05-25T11:57:25.254Z,24.40
2023-05-25T12:00:00.302Z,24.40
2023-05-25T12:02:27.358Z,24.40
2023-05-25T12:04:59.110Z,24.50
2023-05-25T12:07:27.251Z,24.60
2023-05-25T12:10:15.031Z,24.60
2023-05-25T12:12:52.377Z,24.70
2023-05-25T12:15:24.490Z,24.80
2023-05-25T12:17:53.535Z,24.80
2023-05-25T12:20:21.447Z,24.80
2023-05-25T12:22:48.614Z,24.80
2023-05-25T12:25:21.235Z,24.80
2023-05-25T12:27:48.231Z,24.80
2023-05-25T12:30:15.586Z,24.80
2023-05-25T12:33:02.878Z,24.80
2023-05-25T12:35:45.289Z,24.80
2023-05-25T12:38:17.752Z,24.80
2023-05-25T12:40:45.470Z,24.80
2023-05-25T12:43:13.197Z,24.80
2023-05-25T12:45:41.846Z,24.80
2023-05-25T12:48:08.866Z,24.70
2023-05-25T12:50:37.262Z,24.60
2023-05-25T12:53:04.526Z,24.60
2023-05-25T12:55:34.317Z,24.60
2023-05-25T12:58:06.658Z,24.60
2023-05-25T13:00:39.265Z,24.60
2023-05-25T13:03:09.683Z,24.50
2023-05-25T13:05:38.356Z,24.50
2023-05-25T13:08:06.725Z,24.50
2023-05-25T13:10:34.734Z,24.50
2023-05-25T13:13:02.061Z,24.50
2023-05-25T13:15:29.154Z,24.50
2023-05-25T13:17:59.630Z,24.50
2023-05-25T13:20:32.590Z,24.50
2023-05-25T13:22:59.752Z,24.60
2023-05-25T13:25:29.908Z,24.70
2023-05-25T13:27:59.745Z,24.80
2023-05-25T13:30:26.896Z,24.80
2023-05-25T13:32:53.937Z,24.90
2023-05-25T13:35:37.944Z,24.90
2023-05-25T13:38:05.157Z,24.90
2023-05-25T13:40:32.262Z,24.90
2023-05-25T13:42:59.171Z,24.90
2023-05-25T13:45:26.125Z,24.90
2023-05-25T13:47:53.199Z,24.90
2023-05-25T13:50:20.241Z,24.80
2023-05-25T13:52:47.165Z,24.80
2023-05-25T13:55:14.120Z,24.80
2023-05-25T13:57:41.150Z,24.80
2023-05-25T14:00:09.422Z,24.80
2023-05-25T14:02:37.159Z,24.80
2023-05-25T14:05:04.430Z,24.80
2023-05-25T14:07:33.107Z,24.80
2023-05-25T14:10:00.529Z,24.80
2023-05-25T14:12:27.619Z,24.80
2023-05-25T14:14:54.540Z,24.80
2023-05-25T14:17:21.462Z,24.70
2023-05-25T14:19:48.386Z,24.70
2023-05-25T14:22:15.369Z,24.70
2023-05-25T14:24:42.453Z,24.60
2023-05-25T14:27:09.572Z,24.60
2023-05-25T14:29:36.651Z,24.60
2023-05-25T14:32:03.847Z,24.50
2023-05-25T14:34:30.793Z,24.40
2023-05-25T14:36:57.717Z,24.40
2023-05-25T14:39:24.662Z,24.40
2023-05-25T14:41:51.577Z,24.30
2023-05-25T14:44:18.468Z,24.20
2023-05-25T14:46:46.142Z,24.20
2023-05-25T14:49:13.742Z,24.20
2023-05-25T14:51:40.710Z,24.20
2023-05-25T14:54:08.025Z,24.10
2023-05-25T14:56:35.498Z,24.20
2023-05-25T14:59:02.415Z,24.10
2023-05-25T15:01:29.595Z,24.10
2023-05-25T15:03:57.077Z,24.00
2023-05-25T15:06:24.259Z,24.00
2023-05-25T15:08:51.368Z,24.00
2023-05-25T15:11:18.576Z,23.90
2023-05-25T15:13:45.962Z,23.90
2023-05-25T15:16:14.029Z,23.80
2023-05-25T15:18:41.000Z,23.90
2023-05-25T15:21:07.963Z,23.90
2023-05-25T15:23:35.764Z,23.90
2023-05-25T15:26:07.666Z,23.80
2023-05-25T15:28:34.929Z,23.70
2023-05-25T15:31:03.106Z,23.70
2023-05-25T15:33:48.360Z,23.70
2023-05-25T15:36:18.956Z,23.80
2023-05-25T15:38:49.046Z,23.80
2023-05-25T15:41:17.495Z,23.80
2023-05-25T15:43:58.498Z,23.80
2023-05-25T15:46:25.931Z,23.80
2023-05-25T15:48:53.741Z,23.90
2023-05-25T15:51:21.214Z,23.80
2023-05-25T15:53:48.333Z,23.80
2023-05-25T15:56:15.279Z,23.80
2023-05-25T15:58:42.252Z,23.80
2023-05-25T16:01:10.759Z,23.90
2023-05-25T16:03:39.485Z,23.90
2023-05-25T16:06:06.676Z,23.90
2023-05-25T16:08:33.637Z,23.90
2023-05-25T16:11:00.617Z,23.90
2023-05-25T16:13:27.544Z,23.80
2023-05-25T16:15:54.484Z,23.80
2023-05-25T16:18:21.432Z,23.80
2023-05-25T16:20:55.589Z,23.80
2023-05-25T16:23:23.516Z,23.80
2023-05-25T16:25:50.856Z,23.70
2023-05-25T16:28:17.779Z,23.70
2023-05-25T16:30:44.751Z,23.70
2023-05-25T16:33:11.798Z,23.80
2023-05-25T16:35:38.816Z,24.00
2023-05-25T16:38:05.725Z,24.30
2023-05-25T16:40:33.503Z,24.50
2023-05-25T16:43:00.625Z,24.80
2023-05-25T16:45:27.563Z,25.00
2023-05-25T16:47:54.597Z,25.40
2023-05-25T16:50:21.552Z,25.50
2023-05-25T16:52:48.618Z,25.70
2023-05-25T16:55:16.182Z,25.90
2023-05-25T16:57:43.231Z,26.10
2023-05-25T17:00:11.528Z,26.40
2023-05-25T17:02:38.538Z,26.40
2023-05-25T17:05:06.726Z,26.60
2023-05-25T17:07:34.565Z,26.70
2023-05-25T17:10:02.045Z,26.80
2023-05-25T17:12:28.955Z,27.00
2023-05-25T17:14:55.877Z,27.10
2023-05-25T17:17:22.988Z,27.20
2023-05-25T17:19:49.901Z,27.20
2023-05-25T17:22:16.836Z,27.30
2023-05-25T17:24:43.762Z,27.30
2023-05-25T17:27:10.670Z,27.30
2023-05-25T17:29:37.886Z,27.20
2023-05-25T17:32:05.294Z,27.10
2023-05-25T17:34:32.586Z,27.00
2023-05-25T17:36:59.531Z,26.70
2023-05-25T17:39:26.445Z,26.50
2023-05-25T17:41:53.350Z,26.10
2023-05-25T17:44:20.268Z,25.90
2023-05-25T17:46:47.209Z,25.60
2023-05-25T17:49:14.230Z,25.30
2023-05-25T17:51:41.291Z,25.00
2023-05-25T17:54:08.944Z,24.80
2023-05-25T17:56:35.888Z,24.60
2023-05-25T17:59:03.533Z,24.40
2023-05-25T18:01:30.634Z,24.20
2023-05-25T18:03:57.774Z,24.00
2023-05-25T18:06:25.782Z,23.90
2023-05-25T18:08:54.163Z,23.70
2023-05-25T18:11:21.708Z,23.60
2023-05-25T18:13:48.672Z,23.50
2023-05-25T18:16:15.712Z,23.30
2023-05-25T18:18:42.642Z,23.20
2023-05-25T18:21:09.567Z,23.10
2023-05-25T18:23:36.471Z,23.00
2023-05-25T18:26:04.610Z,22.90
2023-05-25T18:28:31.594Z,22.80
2023-05-25T18:30:58.633Z,22.70
2023-05-25T18:33:25.666Z,22.60
2023-05-25T18:35:52.586Z,22.50
2023-05-25T18:38:19.517Z,22.40
2023-05-25T18:40:46.535Z,22.30
2023-05-25T18:43:13.491Z,22.20
2023-05-25T18:45:40.423Z,22.10
2023-05-25T18:48:07.600Z,22.00
2023-05-25T18:50:35.486Z,21.90
2023-05-25T18:53:02.530Z,21.80
2023-05-25T18:55:29.602Z,21.70
2023-05-25T18:57:56.902Z,21.60
2023-05-25T19:00:23.912Z,21.40
2023-05-25T19:02:51.022Z,21.40
2023-05-25T19:05:19.852Z,21.30
2023-05-25T19:10:16.772Z,21.10
2023-05-25T19:12:43.775Z,21.00
2023-05-25T19:15:11.200Z,20.90
2023-05-25T19:17:38.155Z,20.90
2023-05-25T19:20:05.801Z,20.80
2023-05-25T19:22:32.741Z,20.70
2023-05-25T19:25:01.038Z,20.60
2023-05-25T19:27:28.360Z,20.50
2023-05-25T19:29:55.275Z,20.40
2023-05-25T19:32:22.236Z,20.40
2023-05-25T19:34:49.205Z,20.20
2023-05-25T19:37:16.364Z,20.20
2023-05-25T19:39:43.287Z,20.10
2023-05-25T19:42:10.399Z,20.00
2023-05-25T19:44:37.927Z,19.90
2023-05-25T19:47:04.909Z,19.80
2023-05-25T19:49:31.843Z,19.70
2023-05-25T19:51:58.777Z,19.60
2023-05-25T19:54:25.697Z,19.60
2023-05-25T19:56:52.606Z,19.50
2023-05-25T19:59:21.246Z,19.40
2023-05-25T20:01:48.409Z,19.40
2023-05-25T20:04:15.579Z,19.30
2023-05-25T20:06:42.522Z,19.20
2023-05-25T20:09:12.535Z,19.10
2023-05-25T20:11:39.594Z,19.10
2023-05-25T20:14:07.650Z,19.00
2023-05-25T20:16:34.610Z,18.90
2023-05-25T20:19:02.388Z,18.90
2023-05-25T20:21:30.718Z,18.80
2023-05-25T20:23:57.834Z,18.70
2023-05-25T20:26:24.766Z,18.70
2023-05-25T20:28:51.663Z,18.60
2023-05-25T20:31:18.611Z,18.60
2023-05-25T20:33:45.560Z,18.50
2023-05-25T20:36:14.314Z,18.40
2023-05-25T20:38:45.403Z,18.40
2023-05-25T20:41:12.458Z,18.30
2023-05-25T20:43:39.815Z,18.30
2023-05-25T20:46:09.970Z,18.20
2023-05-25T20:48:39.191Z,18.20
2023-05-25T20:51:06.196Z,18.10
2023-05-25T20:53:33.133Z,18.10
2023-05-25T20:56:01.909Z,18.00
2023-05-25T20:58:28.812Z,18.00
2023-05-25T21:00:55.917Z,17.90
2023-05-25T21:03:22.964Z,17.80
2023-05-25T21:05:50.034Z,17.80
2023-05-25T21:08:17.154Z,17.80
2023-05-25T21:10:44.142Z,17.70
2023-05-25T21:13:11.602Z,17.60
2023-05-25T21:15:38.539Z,17.60
2023-05-25T21:18:06.982Z,17.50
2023-05-25T21:20:34.252Z,17.50
2023-05-25T21:23:02.531Z,17.50
2023-05-25T21:25:29.943Z,17.50
2023-05-25T21:27:57.315Z,17.40
2023-05-25T21:30:24.617Z,17.30
2023-05-25T21:32:51.732Z,17.30
2023-05-25T21:35:18.787Z,17.30
2023-05-25T21:37:46.175Z,17.20
2023-05-25T21:40:13.306Z,17.20
2023-05-25T21:42:40.229Z,17.10
2023-05-25T21:45:07.700Z,17.10
2023-05-25T21:47:34.747Z,17.00
2023-05-25T21:50:01.713Z,17.00
2023-05-25T21:52:28.646Z,16.90
2023-05-25T21:54:55.622Z,16.90
2023-05-25T21:57:22.577Z,16.80
2023-05-25T21:59:49.592Z,16.80
2023-05-25T22:02:16.587Z,16.70
2023-05-25T22:04:43.521Z,16.70
2023-05-25T22:07:10.680Z,16.70
2023-05-25T22:09:37.623Z,16.60
2023-05-25T22:12:04.822Z,16.60
2023-05-25T22:14:31.755Z,16.50
2023-05-25T22:16:58.700Z,16.50
2023-05-25T22:19:25.653Z,16.40
2023-05-25T22:21:53.468Z,16.40
2023-05-25T22:24:20.596Z,16.30
2023-05-25T22:26:47.518Z,16.30
2023-05-25T22:29:14.470Z,16.20
2023-05-25T22:31:41.481Z,16.20
2023-05-25T22:34:08.445Z,16.10
2023-05-25T22:36:36.727Z,16.10
2023-05-25T22:39:03.972Z,16.00
2023-05-25T22:41:30.923Z,16.00
2023-05-25T22:43:57.838Z,15.90
2023-05-25T22:46:24.804Z,15.90
2023-05-25T22:48:51.823Z,15.90
2023-05-25T22:51:18.753Z,15.80
2023-05-25T22:53:45.715Z,15.80
2023-05-25T22:56:12.670Z,15.70
2023-05-25T22:58:39.594Z,15.70
2023-05-25T23:01:06.749Z,15.60
2023-05-25T23:03:33.765Z,15.60
2023-05-25T23:06:00.915Z,15.50
2023-05-25T23:08:27.937Z,15.50
2023-05-25T23:10:54.929Z,15.50
2023-05-25T23:13:24.118Z,15.40
2023-05-25T23:15:51.166Z,15.40
2023-05-25T23:18:18.165Z,15.30
2023-05-25T23:20:45.163Z,15.30
2023-05-25T23:23:12.365Z,15.30
2023-05-25T23:25:39.271Z,15.20
2023-05-25T23:28:06.203Z,15.20
2023-05-25T23:30:33.123Z,15.20
2023-05-25T23:33:00.695Z,15.20
2023-05-25T23:35:28.632Z,15.10
2023-05-25T23:37:57.561Z,15.10
2023-05-25T23:40:24.658Z,15.10
2023-05-25T23:42:52.071Z,15.00
2023-05-25T23:45:19.205Z,15.00
2023-05-25T23:47:46.301Z,15.00
2023-05-25T23:50:13.315Z,15.00
2023-05-25T23:52:41.324Z,14.90
2023-05-25T23:55:08.704Z,14.90
2023-05-25T23:57:36.612Z,14.80
